Time;durP1;ratioP1;P1;durP2;ratioP2;P2;SDS_P1;SDS_P2;PMS_P1;PMS_P2;Temp;Humidity;BMP_temperature;BMP_pressure;BME280_temperature;BME280_humidity;BME280_pressure;Samples;Min_cycle;Max_cycle;Signal;HPM_P1;HPM_P2
2023/05/17 00:00:59;;;;;;;0.00;0.00;;;17.10;96.70;;;;;;4857904;29;20085;-70
2023/05/17 00:03:30;;;;;;;0.00;0.00;;;17.00;96.70;;;;;;4856362;29;20076;-69
2023/05/17 00:05:59;;;;;;;0.00;0.00;;;17.00;96.70;;;;;;4846079;29;20120;-70
2023/05/17 00:08:27;;;;;;;0.00;0.00;;;17.00;96.70;;;;;;4857052;29;20557;-70
2023/05/17 00:10:57;;;;;;;0.00;0.00;;;17.00;96.70;;;;;;4858918;29;20057;-70
2023/05/17 00:14:11;;;;;;;0.00;0.00;;;17.00;96.70;;;;;;4861904;29;20097;-69
2023/05/17 00:16:39;;;;;;;0.00;0.00;;;17.00;96.70;;;;;;4875030;29;20064;-69
2023/05/17 00:19:09;;;;;;;0.98;0.00;;;17.00;96.70;;;;;;4849866;29;20521;-70
2023/05/17 00:21:38;;;;;;;0.00;0.00;;;17.00;96.70;;;;;;4879835;29;20083;-70
2023/05/17 00:24:08;;;;;;;0.00;0.00;;;17.00;96.70;;;;;;4883977;29;20080;-70
2023/05/17 00:26:35;;;;;;;0.00;0.00;;;17.00;96.70;;;;;;4876497;29;20076;-70
2023/05/17 00:29:05;;;;;;;0.00;0.00;;;17.00;96.70;;;;;;4864793;29;20121;-70
2023/05/17 00:31:35;;;;;;;0.00;0.00;;;17.00;96.70;;;;;;4870252;29;20144;-70
2023/05/17 00:34:03;;;;;;;0.00;0.00;;;16.90;96.70;;;;;;4882198;28;20102;-70
2023/05/17 00:36:32;;;;;;;0.00;0.00;;;17.00;96.70;;;;;;4945312;28;20042;-70
2023/05/17 00:39:01;;;;;;;0.00;0.00;;;17.00;96.70;;;;;;4942854;28;20054;-70
2023/05/17 00:41:31;;;;;;;0.00;0.00;;;16.90;96.70;;;;;;4942524;28;20039;-70
2023/05/17 00:43:59;;;;;;;1.10;0.00;;;16.90;96.70;;;;;;4927397;28;20165;-69
2023/05/17 00:46:29;;;;;;;0.00;0.00;;;16.90;96.70;;;;;;4939403;28;20042;-70
2023/05/17 00:48:58;;;;;;;0.90;0.00;;;16.90;96.70;;;;;;4940009;28;20050;-69
2023/05/17 00:51:27;;;;;;;0.00;0.00;;;16.90;96.70;;;;;;4943548;28;20035;-70
2023/05/17 00:53:57;;;;;;;0.08;0.00;;;16.80;96.70;;;;;;4960071;28;20054;-69
2023/05/17 00:56:25;;;;;;;1.38;0.00;;;16.80;96.70;;;;;;4960313;28;20116;-69
2023/05/17 00:58:54;;;;;;;0.10;0.00;;;16.80;96.70;;;;;;4937093;28;20585;-69
2023/05/17 01:01:24;;;;;;;0.08;0.00;;;16.90;96.70;;;;;;4945367;28;20063;-70
2023/05/17 01:03:52;;;;;;;0.00;0.00;;;16.90;96.70;;;;;;4938740;28;20040;-70
2023/05/17 01:06:21;;;;;;;0.08;0.00;;;16.80;96.70;;;;;;4938706;28;20132;-69
2023/05/17 01:08:51;;;;;;;0.43;0.00;;;16.80;96.70;;;;;;4925110;29;20791;-69
2023/05/17 01:11:32;;;;;;;0.00;0.00;;;16.80;96.70;;;;;;4940842;28;20071;-70
2023/05/17 01:14:12;;;;;;;0.10;0.00;;;16.70;96.70;;;;;;4953086;28;20050;-70
2023/05/17 01:16:46;;;;;;;0.00;0.00;;;16.70;96.70;;;;;;4935020;28;20047;-70
2023/05/17 01:19:23;;;;;;;0.47;0.00;;;16.70;96.70;;;;;;4939544;28;20047;-69
2023/05/17 01:22:06;;;;;;;0.00;0.00;;;16.70;96.70;;;;;;4927439;28;20042;-70
2023/05/17 01:28:32;;;;;;;0.00;0.00;;;16.60;96.70;;;;;;4902851;29;20569;-69
2023/05/17 01:31:02;;;;;;;0.05;0.00;;;16.60;96.70;;;;;;4902145;29;20052;-69
2023/05/17 01:33:31;;;;;;;0.75;0.10;;;16.50;96.70;;;;;;4887263;29;20075;-68
2023/05/17 01:36:01;;;;;;;0.28;0.10;;;16.60;96.70;;;;;;4897462;29;20052;-69
2023/05/17 01:38:29;;;;;;;0.60;0.10;;;16.60;96.70;;;;;;4908029;29;20059;-69
2023/05/17 02:27:21;;;;;;;0.20;0.00;;;16.60;96.70;;;;;;4964094;28;20066;-70
2023/05/17 02:29:50;;;;;;;0.10;0.00;;;16.60;96.70;;;;;;4961159;28;20529;-69
2023/05/17 02:32:18;;;;;;;0.00;0.00;;;16.70;96.70;;;;;;4962029;28;20047;-70
2023/05/17 02:34:47;;;;;;;0.60;0.00;;;16.70;96.70;;;;;;4940622;28;20050;-69
2023/05/17 02:37:16;;;;;;;0.00;0.00;;;16.70;96.70;;;;;;4928698;28;20054;-69
2023/05/17 02:39:44;;;;;;;0.43;0.00;;;16.70;96.70;;;;;;4941858;28;20509;-70
2023/05/17 02:42:12;;;;;;;0.00;0.00;;;16.70;96.70;;;;;;4944970;28;20546;-69
2023/05/17 02:44:42;;;;;;;0.10;0.00;;;16.70;96.70;;;;;;4959814;28;20047;-69
2023/05/17 02:47:10;;;;;;;0.00;0.00;;;16.70;96.70;;;;;;4961634;28;20133;-69
2023/05/17 02:49:38;;;;;;;0.00;0.00;;;16.70;96.70;;;;;;4945100;28;20046;-69
2023/05/17 02:52:06;;;;;;;0.00;0.00;;;16.80;96.70;;;;;;4961569;28;20105;-69
2023/05/17 02:54:34;;;;;;;1.13;0.00;;;16.80;96.70;;;;;;4958125;28;20536;-69
2023/05/17 02:57:03;;;;;;;0.65;0.10;;;16.70;96.70;;;;;;4958836;28;20055;-70
2023/05/17 02:59:31;;;;;;;0.10;0.00;;;16.70;96.70;;;;;;4958959;28;20042;-69
2023/05/17 03:02:00;;;;;;;0.43;0.15;;;16.70;96.70;;;;;;4957060;28;20493;-69
2023/05/17 03:04:29;;;;;;;0.65;0.20;;;16.70;96.70;;;;;;4931176;28;20145;-69
2023/05/17 03:06:57;;;;;;;1.92;0.17;;;16.60;96.70;;;;;;4946027;28;20541;-69
2023/05/17 03:09:28;;;;;;;0.80;0.30;;;16.40;96.70;;;;;;4962263;28;20047;-69
2023/05/17 03:11:57;;;;;;;1.55;0.73;;;16.30;96.70;;;;;;4943093;28;20047;-69
2023/05/17 03:14:30;;;;;;;1.33;0.30;;;16.40;96.70;;;;;;4945016;28;20126;-70
2023/05/17 03:16:58;;;;;;;1.10;0.45;;;16.40;96.70;;;;;;4963072;28;20046;-70
2023/05/17 03:19:27;;;;;;;1.52;0.20;;;16.30;96.70;;;;;;4959743;28;20134;-70
2023/05/17 03:21:56;;;;;;;1.38;0.20;;;16.20;96.70;;;;;;4959456;28;20138;-69
2023/05/17 03:24:25;;;;;;;1.33;0.30;;;16.10;96.70;;;;;;4948275;28;20096;-70
2023/05/17 03:26:53;;;;;;;1.77;0.30;;;16.10;96.70;;;;;;4961944;28;20570;-69
2023/05/17 03:29:22;;;;;;;1.05;0.20;;;16.20;96.70;;;;;;4946123;28;20083;-69
2023/05/17 04:21:56;;;;;;;1.70;0.20;;;16.30;96.70;;;;;;4944400;28;20468;-69
2023/05/17 04:24:26;;;;;;;0.73;0.08;;;16.40;96.70;;;;;;4941178;28;20058;-70
2023/05/17 04:26:55;;;;;;;2.58;0.17;;;16.40;96.70;;;;;;4944714;28;20076;-69
2023/05/17 05:03:06;;;;;;;1.52;0.10;;;16.40;96.70;;;;;;4960265;28;20085;-71
2023/05/17 05:05:35;;;;;;;0.73;0.20;;;16.30;96.70;;;;;;4958748;28;20083;-71
2023/05/17 05:08:04;;;;;;;1.35;0.10;;;16.30;96.70;;;;;;4955810;28;20057;-71
2023/05/17 05:10:33;;;;;;;1.45;0.43;;;16.30;96.70;;;;;;4940780;28;20162;-71
2023/05/17 05:13:02;;;;;;;1.13;0.20;;;16.20;96.70;;;;;;4960056;28;20042;-71
2023/05/17 05:15:31;;;;;;;0.70;0.20;;;16.20;96.70;;;;;;4947114;28;20080;-71
2023/05/17 05:18:00;;;;;;;1.23;0.05;;;16.20;96.70;;;;;;4928519;28;20061;-71
2023/05/17 05:20:31;;;;;;;1.05;0.30;;;16.20;96.70;;;;;;4946483;28;20774;-71
2023/05/17 05:23:02;;;;;;;1.00;0.40;;;16.10;96.70;;;;;;4944579;28;20102;-71
2023/05/17 05:25:30;;;;;;;1.17;0.63;;;16.10;96.70;;;;;;4939553;28;20138;-71
2023/05/17 05:27:59;;;;;;;1.35;0.65;;;16.10;96.70;;;;;;4944794;28;20047;-70
2023/05/17 05:30:29;;;;;;;1.67;0.60;;;16.20;96.70;;;;;;4950412;28;20050;-72
2023/05/17 05:32:57;;;;;;;1.13;0.60;;;16.20;96.70;;;;;;4952188;28;20585;-71
2023/05/17 05:35:29;;;;;;;1.33;0.80;;;16.20;96.70;;;;;;4961755;28;20133;-70
2023/05/17 05:38:00;;;;;;;0.82;0.52;;;16.20;96.70;;;;;;4969593;28;20054;-71
2023/05/17 05:40:29;;;;;;;0.95;0.70;;;16.20;96.70;;;;;;4938197;28;20075;-71
2023/05/17 05:42:57;;;;;;;1.52;0.73;;;16.20;96.70;;;;;;4954362;28;20121;-71
2023/05/17 05:45:26;;;;;;;2.60;0.70;;;16.20;96.70;;;;;;4946570;28;20586;-71
2023/05/17 05:47:59;;;;;;;2.08;0.50;;;16.30;96.70;;;;;;4933686;28;20047;-72
2023/05/17 05:50:28;;;;;;;1.13;0.55;;;16.30;96.70;;;;;;4942522;28;20053;-71
2023/05/17 05:53:02;;;;;;;1.83;0.70;;;16.30;96.70;;;;;;4962577;28;21223;-70
2023/05/17 05:55:50;;;;;;;1.08;0.50;;;16.40;96.70;;;;;;4966793;28;20599;-71
2023/05/17 05:58:20;;;;;;;2.60;0.47;;;16.40;96.70;;;;;;4963248;28;20046;-72
2023/05/17 06:00:49;;;;;;;1.10;0.50;;;16.40;96.70;;;;;;4946183;28;20066;-72
2023/05/17 06:03:17;;;;;;;1.35;0.47;;;16.40;96.70;;;;;;4981207;28;20103;-71
2023/05/17 06:05:46;;;;;;;0.88;0.30;;;16.40;96.70;;;;;;4977911;28;20047;-72
2023/05/17 06:08:16;;;;;;;1.17;0.30;;;16.40;96.70;;;;;;4963303;28;20047;-71
2023/05/17 06:10:45;;;;;;;0.98;0.40;;;16.30;96.70;;;;;;4965730;28;20050;-71
2023/05/17 06:13:13;;;;;;;3.58;0.85;;;16.30;96.70;;;;;;4971375;28;20460;-72
2023/05/17 06:15:42;;;;;;;1.38;0.47;;;16.30;96.70;;;;;;4944513;28;20165;-71
2023/05/17 06:18:13;;;;;;;2.92;0.60;;;16.30;96.70;;;;;;4963429;28;20170;-72
2023/05/17 06:20:42;;;;;;;2.95;0.80;;;16.40;96.70;;;;;;4943929;28;20039;-71
2023/05/17 06:23:10;;;;;;;1.58;0.40;;;16.40;96.70;;;;;;4948078;28;20061;-71
2023/05/17 06:25:40;;;;;;;2.28;0.70;;;16.40;96.70;;;;;;4969413;28;20051;-72
2023/05/17 06:28:08;;;;;;;2.03;0.70;;;16.20;96.70;;;;;;4966563;28;20074;-72
2023/05/17 06:30:36;;;;;;;3.90;0.73;;;16.20;96.70;;;;;;4958512;28;20623;-72
2023/05/17 06:33:05;;;;;;;2.55;0.77;;;16.30;96.70;;;;;;4966560;28;20050;-72
2023/05/17 06:35:34;;;;;;;3.55;0.63;;;16.30;96.70;;;;;;4972951;28;20237;-73
2023/05/17 06:38:22;;;;;;;2.13;0.50;;;16.40;96.70;;;;;;4945295;28;20058;-72
2023/05/17 06:40:53;;;;;;;2.15;0.50;;;16.40;96.70;;;;;;4953437;28;20126;-73
2023/05/17 06:43:22;;;;;;;3.97;0.60;;;16.40;96.70;;;;;;4974621;28;20054;-74
2023/05/17 06:45:50;;;;;;;3.58;0.45;;;16.40;96.70;;;;;;4959055;28;20420;-72
2023/05/17 06:48:19;;;;;;;3.28;0.68;;;16.50;96.70;;;;;;4964680;28;20050;-72
2023/05/17 06:50:48;;;;;;;1.30;0.50;;;16.50;96.70;;;;;;4950410;28;20042;-72
2023/05/17 06:53:16;;;;;;;2.83;0.63;;;16.50;96.70;;;;;;4967132;28;20046;-73
2023/05/17 06:55:44;;;;;;;1.92;0.60;;;16.50;96.70;;;;;;4949309;28;20054;-72
2023/05/17 06:58:14;;;;;;;2.42;0.95;;;16.60;96.70;;;;;;4971334;28;20053;-72
2023/05/17 07:00:43;;;;;;;3.28;0.60;;;16.70;96.70;;;;;;4971639;28;20153;-73
2023/05/17 07:03:11;;;;;;;1.35;0.50;;;16.80;96.70;;;;;;4975153;28;20042;-72
2023/05/17 07:05:39;;;;;;;1.08;0.30;;;16.70;96.70;;;;;;4951350;28;20069;-73
2023/05/17 07:08:08;;;;;;;1.60;0.40;;;16.80;96.70;;;;;;4976369;28;20042;-73
2023/05/17 07:10:36;;;;;;;0.88;0.20;;;16.80;96.70;;;;;;4958086;28;20169;-72
2023/05/17 07:13:04;;;;;;;2.35;0.28;;;16.70;96.70;;;;;;4984379;28;20129;-72
2023/05/17 07:15:34;;;;;;;1.55;0.35;;;16.70;96.70;;;;;;4982811;28;20042;-71
2023/05/17 07:18:03;;;;;;;1.17;0.20;;;16.80;96.70;;;;;;4960725;28;20161;-72
2023/05/17 07:20:31;;;;;;;1.48;0.38;;;16.80;96.70;;;;;;4967396;28;20134;-72
2023/05/17 07:22:59;;;;;;;2.10;0.40;;;16.80;96.70;;;;;;4962761;28;20042;-72
2023/05/17 07:25:28;;;;;;;1.05;0.38;;;16.80;96.70;;;;;;4983478;28;20500;-72
2023/05/17 07:27:57;;;;;;;2.10;0.50;;;16.90;96.70;;;;;;4976922;28;20525;-71
2023/05/17 07:30:25;;;;;;;3.05;0.73;;;17.00;96.70;;;;;;4978444;28;20076;-72
2023/05/17 07:32:55;;;;;;;3.85;1.25;;;17.00;96.70;;;;;;4980691;28;20347;-72
2023/05/17 07:35:23;;;;;;;3.67;1.27;;;17.10;96.70;;;;;;4977005;28;20055;-73
2023/05/17 07:37:52;;;;;;;3.40;0.93;;;17.20;96.70;;;;;;4952498;28;20107;-72
2023/05/17 07:40:20;;;;;;;2.88;1.30;;;17.20;96.70;;;;;;4979401;28;20069;-73
2023/05/17 07:42:49;;;;;;;3.55;0.65;;;17.20;96.70;;;;;;4981188;28;20519;-73
2023/05/17 07:45:18;;;;;;;2.03;0.60;;;17.20;96.70;;;;;;4983677;28;20564;-72
2023/05/17 07:47:46;;;;;;;2.13;0.60;;;17.20;96.70;;;;;;4983635;28;20685;-72
2023/05/17 07:50:16;;;;;;;2.08;0.80;;;17.20;96.70;;;;;;4982572;28;20046;-71
2023/05/17 07:52:44;;;;;;;1.50;0.50;;;17.30;96.70;;;;;;4969666;28;20129;-72
2023/05/17 07:55:13;;;;;;;3.65;0.60;;;17.40;96.70;;;;;;4956002;28;20042;-73
2023/05/17 07:57:46;;;;;;;6.53;1.08;;;17.40;96.70;;;;;;4957706;28;20053;-72
2023/05/17 08:00:18;;;;;;;2.75;0.82;;;17.50;96.70;;;;;;4972380;28;20664;-72
2023/05/17 08:02:46;;;;;;;6.38;1.65;;;17.60;96.70;;;;;;4961848;28;20500;-72
2023/05/17 08:05:19;;;;;;;3.85;1.77;;;17.60;96.70;;;;;;4975549;28;20085;-72
2023/05/17 08:07:47;;;;;;;3.83;1.48;;;17.70;96.70;;;;;;4948853;28;20050;-71
2023/05/17 08:10:16;;;;;;;8.25;2.28;;;17.80;96.70;;;;;;4964920;28;20090;-72
2023/05/17 08:12:44;;;;;;;5.70;2.55;;;18.00;96.70;;;;;;4975856;28;20038;-72
2023/05/17 08:15:13;;;;;;;5.07;1.73;;;18.10;96.70;;;;;;4982314;28;20046;-72
2023/05/17 08:17:41;;;;;;;7.00;2.47;;;18.20;96.70;;;;;;4975550;28;20035;-73
2023/05/17 08:20:10;;;;;;;6.03;2.35;;;18.20;96.70;;;;;;4965391;28;20039;-73
2023/05/17 08:22:40;;;;;;;6.40;2.50;;;18.30;96.70;;;;;;4959458;28;20125;-72
2023/05/17 08:25:09;;;;;;;7.57;2.17;;;18.30;96.70;;;;;;4974584;28;20053;-72
2023/05/17 08:27:37;;;;;;;7.30;2.55;;;18.40;96.70;;;;;;4959366;28;20073;-72
2023/05/17 08:30:07;;;;;;;4.63;1.98;;;18.40;96.70;;;;;;4976940;28;20045;-73
2023/05/17 08:32:43;;;;;;;6.22;2.03;;;18.50;96.70;;;;;;4955207;28;20153;-72
2023/05/17 08:35:12;;;;;;;7.22;1.98;;;18.50;96.70;;;;;;4962181;28;20075;-72
2023/05/17 08:37:42;;;;;;;5.40;1.75;;;18.70;96.70;;;;;;4953572;28;20038;-71
2023/05/17 08:40:10;;;;;;;5.63;1.88;;;18.80;96.70;;;;;;4965140;28;20496;-71
2023/05/17 08:42:39;;;;;;;2.67;0.55;;;18.90;96.70;;;;;;4973500;28;20050;-72
2023/05/17 08:45:09;;;;;;;1.13;0.40;;;18.90;96.70;;;;;;4971694;28;20043;-73
2023/05/17 08:47:41;;;;;;;1.15;0.30;;;18.70;96.70;;;;;;4982585;28;20363;-72
2023/05/17 08:50:11;;;;;;;0.50;0.10;;;18.60;96.70;;;;;;4972942;28;20050;-72
2023/05/17 08:52:44;;;;;;;0.65;0.30;;;18.50;96.70;;;;;;4972252;28;20070;-72
2023/05/17 08:55:15;;;;;;;0.35;0.10;;;18.50;96.70;;;;;;4980770;28;20043;-72
2023/05/17 08:57:45;;;;;;;0.40;0.00;;;18.40;96.70;;;;;;4981808;28;20065;-72
2023/05/17 09:00:36;;;;;;;1.00;0.20;;;18.40;96.70;;;;;;4974367;28;20510;-71
2023/05/17 09:03:05;;;;;;;0.43;0.00;;;18.60;96.70;;;;;;4890644;29;20071;-72
2023/05/17 09:05:35;;;;;;;0.63;0.08;;;18.70;96.70;;;;;;4888035;29;20052;-72
2023/05/17 09:08:05;;;;;;;1.63;0.00;;;18.90;96.70;;;;;;4904621;29;20060;-72
2023/05/17 09:10:33;;;;;;;0.10;0.00;;;18.80;96.70;;;;;;4898406;29;20130;-72
2023/05/17 09:13:01;;;;;;;0.10;0.00;;;18.70;96.70;;;;;;4904382;29;20056;-72
2023/05/17 09:15:33;;;;;;;0.35;0.00;;;18.60;96.70;;;;;;4904156;29;20059;-72
2023/05/17 09:18:01;;;;;;;0.32;0.03;;;18.70;96.70;;;;;;4903418;29;20056;-72
2023/05/17 09:20:33;;;;;;;0.60;0.00;;;18.80;96.70;;;;;;4894653;29;20048;-72
2023/05/17 09:23:01;;;;;;;0.47;0.00;;;18.90;96.70;;;;;;4906033;29;20064;-72
2023/05/17 09:25:31;;;;;;;0.73;0.10;;;19.00;96.70;;;;;;4892161;29;20052;-72
2023/05/17 09:28:02;;;;;;;0.20;0.10;;;19.00;96.70;;;;;;4904313;29;20092;-72
2023/05/17 09:30:32;;;;;;;1.30;0.20;;;19.10;96.70;;;;;;4909026;29;20134;-72
2023/05/17 09:33:05;;;;;;;0.13;0.03;;;19.20;96.70;;;;;;4905245;28;20597;-72
2023/05/17 09:35:35;;;;;;;0.50;0.10;;;19.30;96.70;;;;;;4951470;28;20524;-72
2023/05/17 09:38:06;;;;;;;0.45;0.00;;;19.40;96.70;;;;;;4974045;28;20391;-73
2023/05/17 09:40:39;;;;;;;0.30;0.10;;;19.50;96.70;;;;;;4940193;28;20135;-73
2023/05/17 09:43:08;;;;;;;1.98;0.00;;;19.50;96.70;;;;;;4966847;28;20061;-73
2023/05/17 09:45:36;;;;;;;0.20;0.10;;;19.70;96.70;;;;;;4981666;28;20046;-73
2023/05/17 09:48:13;;;;;;;0.00;0.00;;;19.80;96.70;;;;;;4977046;28;20047;-72
2023/05/17 09:50:45;;;;;;;0.22;0.10;;;19.70;96.70;;;;;;4969673;28;20133;-73
2023/05/17 09:53:26;;;;;;;0.20;0.10;;;19.60;96.70;;;;;;4974278;28;20146;-72
2023/05/17 09:55:57;;;;;;;0.30;0.10;;;19.60;96.70;;;;;;4960339;28;20113;-73
2023/05/17 09:58:27;;;;;;;0.00;0.00;;;19.50;96.70;;;;;;4985287;28;20418;-72
2023/05/17 10:01:00;;;;;;;1.85;0.10;;;19.40;96.70;;;;;;4978744;28;20046;-73
2023/05/17 10:03:31;;;;;;;0.28;0.08;;;19.30;96.70;;;;;;4968682;28;20043;-72
2023/05/17 10:06:04;;;;;;;0.77;0.15;;;19.20;96.70;;;;;;4984757;28;20054;-73
2023/05/17 10:08:33;;;;;;;2.95;0.10;;;19.10;96.70;;;;;;4973671;28;20050;-72
2023/05/17 10:11:07;;;;;;;0.20;0.00;;;19.10;96.70;;;;;;4977520;28;20057;-73
2023/05/17 10:13:40;;;;;;;0.22;0.03;;;19.00;96.70;;;;;;4975833;28;20957;-72
2023/05/17 10:16:11;;;;;;;0.20;0.10;;;19.00;96.70;;;;;;4967993;28;20053;-72
2023/05/17 10:18:39;;;;;;;0.70;0.00;;;19.00;96.70;;;;;;4967463;28;20051;-73
2023/05/17 10:21:09;;;;;;;0.77;0.10;;;19.00;96.70;;;;;;4950331;28;20055;-73
2023/05/17 10:23:40;;;;;;;0.32;0.10;;;19.20;96.70;;;;;;4983452;28;20678;-72
2023/05/17 10:26:11;;;;;;;0.68;0.00;;;19.30;96.70;;;;;;4976420;28;20085;-72
2023/05/17 10:28:41;;;;;;;0.13;0.00;;;19.40;96.70;;;;;;4984381;28;20046;-72
2023/05/17 10:31:09;;;;;;;0.20;0.00;;;19.30;96.70;;;;;;4961959;28;20605;-71
2023/05/17 10:33:38;;;;;;;1.25;0.00;;;19.30;96.70;;;;;;4949126;28;20137;-71
2023/05/17 10:36:08;;;;;;;0.90;0.00;;;19.40;96.70;;;;;;4983463;28;20431;-72
2023/05/17 10:38:36;;;;;;;0.05;0.00;;;19.50;96.70;;;;;;4981318;28;20046;-72
2023/05/17 10:41:12;;;;;;;2.10;0.10;;;19.40;96.70;;;;;;4976044;28;20492;-72
2023/05/17 10:43:42;;;;;;;0.95;0.10;;;19.40;96.70;;;;;;4971681;28;20563;-71
2023/05/17 10:46:16;;;;;;;1.13;0.00;;;19.40;96.70;;;;;;4973989;28;20089;-72
2023/05/17 10:48:49;;;;;;;1.88;0.10;;;19.40;96.70;;;;;;4949207;28;20412;-72
2023/05/17 10:51:25;;;;;;;0.25;0.03;;;19.40;96.70;;;;;;4948837;28;20075;-71
2023/05/17 10:54:03;;;;;;;;;;;19.40;96.70;;;;;;4964730;28;20488;-72
2023/05/17 10:56:33;;;;;;;0.45;0.10;;;19.40;96.70;;;;;;4955283;28;19956;-72
2023/05/17 10:59:20;;;;;;;0.32;0.00;;;19.40;96.70;;;;;;4949444;28;20047;-72
2023/05/17 11:01:51;;;;;;;;;;;19.40;96.70;;;;;;4971272;28;20500;-73
2023/05/17 11:04:22;;;;;;;1.38;0.00;;;19.50;96.70;;;;;;4946672;28;19988;-73
2023/05/17 11:06:52;;;;;;;0.05;0.00;;;19.50;96.70;;;;;;4964780;28;20720;-74
2023/05/17 11:09:25;;;;;;;0.20;0.00;;;19.60;96.70;;;;;;4952545;28;20042;-71
2023/05/17 11:12:09;;;;;;;0.90;0.00;;;19.70;96.70;;;;;;4961650;28;20047;-74
2023/05/17 11:14:47;;;;;;;1.15;0.00;;;19.60;96.70;;;;;;4974663;28;20046;-71
2023/05/17 11:17:16;;;;;;;0.28;0.03;;;19.70;96.70;;;;;;4969519;28;20134;-71
2023/05/17 11:20:09;;;;;;;0.15;0.00;;;19.80;96.70;;;;;;4966759;28;20039;-71
2023/05/17 11:22:42;;;;;;;1.00;0.00;;;19.90;96.70;;;;;;4974529;28;20065;-71
2023/05/17 11:25:12;;;;;;;0.10;0.00;;;20.10;96.70;;;;;;4970615;28;20403;-72
2023/05/17 11:27:45;;;;;;;0.00;0.00;;;20.20;96.70;;;;;;4974222;28;20085;-73
2023/05/17 11:30:20;;;;;;;0.00;0.00;;;20.30;96.70;;;;;;4973423;28;20145;-72
2023/05/17 11:32:53;;;;;;;0.85;0.00;;;20.60;96.70;;;;;;4960834;28;20061;-73
2023/05/17 11:35:25;;;;;;;0.63;0.00;;;20.90;96.70;;;;;;4970089;28;20046;-72
2023/05/17 11:38:14;;;;;;;0.10;0.00;;;20.90;96.70;;;;;;4973040;28;20047;-73
2023/05/17 11:40:43;;;;;;;0.10;0.00;;;21.20;96.70;;;;;;4963080;28;20120;-73
2023/05/17 11:43:15;;;;;;;0.00;0.00;;;21.20;96.70;;;;;;4966049;28;20038;-73
2023/05/17 11:45:49;;;;;;;3.00;0.00;;;21.10;96.70;;;;;;4947874;28;20054;-73
2023/05/17 11:48:22;;;;;;;0.70;0.00;;;21.10;96.70;;;;;;4965571;28;20497;-72
2023/05/17 11:50:52;;;;;;;0.52;0.00;;;21.30;96.70;;;;;;4964082;28;20061;-71
2023/05/17 11:53:21;;;;;;;0.43;0.00;;;21.20;96.70;;;;;;4966022;28;20129;-71
2023/05/17 11:55:51;;;;;;;0.20;0.00;;;21.30;96.70;;;;;;4939352;28;20674;-71
2023/05/17 11:58:25;;;;;;;0.70;0.00;;;21.50;96.70;;;;;;4965849;28;20058;-71
2023/05/17 12:00:55;;;;;;;0.00;0.00;;;21.70;96.70;;;;;;4965461;28;20073;-72
2023/05/17 12:03:24;;;;;;;0.20;0.05;;;21.80;96.70;;;;;;4940912;28;20578;-72
2023/05/17 12:06:02;;;;;;;1.02;0.00;;;21.90;96.70;;;;;;4965907;28;20109;-72
2023/05/17 12:08:33;;;;;;;0.20;0.00;;;21.90;96.70;;;;;;4964776;28;20046;-71
2023/05/17 12:11:02;;;;;;;1.05;0.10;;;22.40;96.70;;;;;;4947529;28;20125;-72
2023/05/17 12:13:34;;;;;;;1.08;0.10;;;22.30;96.70;;;;;;4958729;28;20038;-71
2023/05/17 12:16:06;;;;;;;0.65;0.00;;;22.40;96.70;;;;;;4964343;28;20071;-71
2023/05/17 12:18:35;;;;;;;0.43;0.10;;;22.20;96.70;;;;;;4970627;28;20046;-70
2023/05/17 12:21:04;;;;;;;0.75;0.10;;;22.40;96.70;;;;;;4952385;28;20526;-72
2023/05/17 12:23:34;;;;;;;0.60;0.20;;;22.60;96.70;;;;;;4968781;28;20093;-71
2023/05/17 12:26:05;;;;;;;1.77;0.28;;;22.80;96.70;;;;;;4974552;28;20511;-71
2023/05/17 12:28:36;;;;;;;0.88;0.10;;;22.70;96.70;;;;;;4967704;28;20073;-71
2023/05/17 12:31:08;;;;;;;0.73;0.03;;;22.60;96.70;;;;;;4968038;28;20057;-73
2023/05/17 12:33:40;;;;;;;0.93;0.20;;;22.70;96.70;;;;;;4951693;28;20042;-70
2023/05/17 12:36:09;;;;;;;1.70;0.10;;;22.50;96.70;;;;;;4965329;28;20779;-71
2023/05/17 12:38:39;;;;;;;0.20;0.10;;;22.40;96.70;;;;;;4962786;28;20038;-72
2023/05/17 12:41:10;;;;;;;1.77;0.60;;;22.30;96.70;;;;;;4974577;28;20047;-72
2023/05/17 12:43:42;;;;;;;0.77;0.40;;;21.90;96.70;;;;;;4950710;28;20047;-72
2023/05/17 12:46:13;;;;;;;1.48;0.28;;;21.80;96.70;;;;;;4963120;28;20058;-71
2023/05/17 12:48:42;;;;;;;0.90;0.25;;;21.70;96.70;;;;;;4962455;28;20531;-71
2023/05/17 12:51:13;;;;;;;0.93;0.20;;;21.70;96.70;;;;;;4964084;28;20043;-72
2023/05/17 12:53:43;;;;;;;1.38;0.43;;;21.70;96.70;;;;;;4962424;28;20057;-72
2023/05/17 12:56:17;;;;;;;1.00;0.20;;;21.70;96.70;;;;;;4950055;28;20157;-73
2023/05/17 12:59:04;;;;;;;0.70;0.20;;;21.80;96.70;;;;;;4968278;28;20646;-71
2023/05/17 13:01:34;;;;;;;1.00;0.22;;;21.90;96.70;;;;;;4972625;28;20699;-74
2023/05/17 13:04:02;;;;;;;0.75;0.25;;;22.10;96.70;;;;;;4960456;28;20097;-74
2023/05/17 13:06:43;;;;;;;1.05;0.30;;;22.20;96.70;;;;;;4964217;28;20101;-71
2023/05/17 13:09:13;;;;;;;0.70;0.40;;;22.30;96.70;;;;;;4967188;28;20133;-71
2023/05/17 13:11:41;;;;;;;2.25;0.55;;;22.40;96.70;;;;;;4964226;28;20043;-72
2023/05/17 13:14:13;;;;;;;0.88;0.30;;;22.50;96.70;;;;;;4946330;28;20047;-71
2023/05/17 13:16:42;;;;;;;2.47;0.40;;;22.60;96.70;;;;;;4967714;28;20055;-71
2023/05/17 13:19:13;;;;;;;5.03;0.43;;;22.60;96.70;;;;;;4966095;28;20046;-71
2023/05/17 13:21:42;;;;;;;3.95;0.65;;;22.70;96.70;;;;;;4981746;28;20053;-71
2023/05/17 13:24:10;;;;;;;2.88;0.40;;;22.70;96.70;;;;;;4973709;28;20435;-72
2023/05/17 13:26:38;;;;;;;0.90;0.50;;;22.80;96.70;;;;;;4972639;28;20092;-72
2023/05/17 13:29:06;;;;;;;1.60;0.30;;;22.80;96.70;;;;;;4972390;28;20046;-71
2023/05/17 13:31:36;;;;;;;1.73;0.40;;;22.90;96.70;;;;;;4951361;28;20545;-71
2023/05/17 13:34:04;;;;;;;3.35;0.40;;;22.90;96.70;;;;;;4981781;28;20134;-71
2023/05/17 13:36:32;;;;;;;1.23;0.50;;;22.40;96.70;;;;;;4933224;28;20047;-71
2023/05/17 13:39:00;;;;;;;1.60;0.52;;;22.50;96.70;;;;;;4979425;28;20508;-72
2023/05/17 13:41:29;;;;;;;1.02;0.50;;;22.90;96.70;;;;;;4946803;28;20138;-71
2023/05/17 13:43:57;;;;;;;1.50;0.52;;;22.90;96.70;;;;;;4974962;28;20076;-71
2023/05/17 13:46:25;;;;;;;1.80;0.30;;;23.00;96.70;;;;;;4976778;28;20460;-72
2023/05/17 13:48:55;;;;;;;2.35;0.47;;;23.00;96.70;;;;;;4972709;28;20043;-71
2023/05/17 13:51:24;;;;;;;1.23;0.50;;;23.10;96.70;;;;;;4970403;28;20125;-71
2023/05/17 13:53:52;;;;;;;1.77;0.40;;;23.10;96.70;;;;;;4963178;28;20045;-71
2023/05/17 13:56:21;;;;;;;3.65;0.57;;;23.10;96.70;;;;;;4959937;28;20054;-71
2023/05/17 13:58:49;;;;;;;2.58;0.50;;;23.20;96.70;;;;;;4982344;28;20046;-71
2023/05/17 14:01:17;;;;;;;2.15;0.70;;;23.20;96.70;;;;;;4981419;28;20097;-71
2023/05/17 14:03:45;;;;;;;3.20;0.70;;;23.10;96.70;;;;;;4948152;28;20038;-71
2023/05/17 14:06:15;;;;;;;3.75;1.23;;;22.80;96.70;;;;;;4971557;28;20046;-72
2023/05/17 14:08:45;;;;;;;3.55;0.90;;;22.70;96.70;;;;;;4961795;28;20721;-71
2023/05/17 14:11:13;;;;;;;4.93;0.85;;;23.10;96.70;;;;;;4969273;28;20051;-71
2023/05/17 14:13:41;;;;;;;3.33;0.80;;;23.80;96.70;;;;;;4964125;28;20047;-71
2023/05/17 14:16:09;;;;;;;1.08;0.50;;;24.70;96.70;;;;;;4964184;28;20038;-71
2023/05/17 14:18:38;;;;;;;4.60;0.75;;;25.30;96.70;;;;;;4959386;28;20754;-71
2023/05/17 14:21:07;;;;;;;2.65;0.73;;;25.60;96.70;;;;;;4962969;28;20053;-72
2023/05/17 14:23:36;;;;;;;1.33;0.50;;;25.80;96.70;;;;;;4954656;28;20054;-71
2023/05/17 14:26:06;;;;;;;1.40;0.57;;;26.00;96.70;;;;;;4943299;28;20900;-71
2023/05/17 14:28:37;;;;;;;1.58;0.52;;;26.20;96.70;;;;;;4973761;28;20066;-71
2023/05/17 14:31:06;;;;;;;2.60;0.60;;;26.10;96.70;;;;;;4977830;28;20459;-72
2023/05/17 14:33:34;;;;;;;2.30;0.38;;;25.90;96.70;;;;;;4979683;28;20050;-73
2023/05/17 14:36:03;;;;;;;1.75;0.47;;;25.60;96.70;;;;;;4961761;28;20047;-72
2023/05/17 14:38:31;;;;;;;2.20;0.50;;;25.20;96.70;;;;;;4966962;28;20392;-71
2023/05/17 14:41:01;;;;;;;0.63;0.40;;;25.10;96.70;;;;;;4980453;28;20764;-71
2023/05/17 14:43:29;;;;;;;1.67;0.60;;;24.80;96.70;;;;;;4977686;28;20153;-72
2023/05/17 14:45:57;;;;;;;0.82;0.50;;;24.60;96.70;;;;;;4957708;28;20062;-71
2023/05/17 14:48:25;;;;;;;1.98;0.57;;;24.50;96.70;;;;;;4984150;28;20042;-72
2023/05/17 14:50:53;;;;;;;1.02;0.38;;;24.10;96.70;;;;;;4966803;28;20057;-71
2023/05/17 14:53:22;;;;;;;2.75;0.50;;;23.90;96.70;;;;;;4966860;28;20050;-71
2023/05/17 14:55:50;;;;;;;1.00;0.43;;;23.60;96.70;;;;;;4973496;28;20548;-71
2023/05/17 14:58:20;;;;;;;1.80;0.60;;;23.80;96.70;;;;;;4967500;28;20073;-71
2023/05/17 15:00:53;;;;;;;0.68;0.30;;;24.10;96.70;;;;;;4957526;28;20603;-71
2023/05/17 15:03:32;;;;;;;1.55;0.60;;;24.10;96.70;;;;;;4967156;28;20738;-71
2023/05/17 15:06:00;;;;;;;4.68;0.85;;;24.00;96.70;;;;;;4962666;28;20074;-71
2023/05/17 15:08:34;;;;;;;2.58;0.43;;;23.40;96.70;;;;;;4980838;28;20556;-71
2023/05/17 15:11:01;;;;;;;0.75;0.22;;;22.90;96.70;;;;;;4971297;28;20049;-71
2023/05/17 15:13:31;;;;;;;1.95;0.20;;;23.00;96.70;;;;;;4944879;28;20058;-71
2023/05/17 15:16:00;;;;;;;2.15;0.30;;;23.10;96.70;;;;;;4965873;28;20514;-71
2023/05/17 15:18:29;;;;;;;0.95;0.30;;;22.80;96.70;;;;;;4964928;28;20063;-71